createdAt,value
2023-02-17T00:01:50.683Z,22.37
2023-02-17T00:04:18.648Z,24.00
2023-02-17T00:06:47.331Z,29.33
2023-02-17T00:09:17.148Z,29.53
2023-02-17T00:11:45.991Z,24.20
2023-02-17T00:14:15.320Z,24.80
2023-02-17T00:16:44.447Z,21.70
2023-02-17T00:19:26.545Z,22.57
2023-02-17T00:21:57.127Z,24.77
2023-02-17T00:24:30.069Z,25.40
2023-02-17T00:26:59.046Z,21.47
2023-02-17T00:29:35.893Z,24.00
2023-02-17T00:32:04.783Z,25.83
2023-02-17T00:34:33.728Z,22.50
2023-02-17T00:37:01.985Z,18.47
2023-02-17T00:39:32.104Z,19.83
2023-02-17T00:42:00.195Z,20.17
2023-02-17T00:44:30.894Z,23.57
2023-02-17T00:47:03.521Z,20.80
2023-02-17T00:49:35.564Z,20.60
2023-02-17T00:52:04.014Z,21.90
2023-02-17T00:54:36.016Z,19.33
2023-02-17T00:57:05.661Z,23.47
2023-02-17T00:59:33.651Z,19.63
2023-02-17T01:02:26.783Z,19.53
2023-02-17T01:04:55.247Z,15.37
2023-02-17T01:07:23.814Z,23.17
2023-02-17T01:09:54.109Z,20.13
2023-02-17T01:12:22.741Z,16.60
2023-02-17T01:14:52.916Z,20.17
2023-02-17T01:17:21.771Z,21.57
2023-02-17T01:19:49.787Z,17.73
2023-02-17T01:22:17.837Z,17.67
2023-02-17T01:24:46.217Z,21.40
2023-02-17T01:27:15.826Z,13.80
2023-02-17T01:29:46.486Z,24.10
2023-02-17T01:32:14.877Z,22.67
2023-02-17T01:34:42.873Z,21.70
2023-02-17T01:37:11.304Z,23.97
2023-02-17T01:39:40.614Z,18.93
2023-02-17T01:42:17.671Z,19.03
2023-02-17T01:45:31.857Z,19.23
2023-02-17T01:48:03.282Z,18.83
2023-02-17T01:50:36.266Z,21.83
2023-02-17T01:53:07.090Z,18.10
2023-02-17T01:55:39.517Z,21.73
2023-02-17T01:58:13.504Z,17.77
2023-02-17T02:00:42.437Z,20.10
2023-02-17T02:03:12.975Z,20.10
2023-02-17T02:05:45.100Z,22.47
2023-02-17T02:08:14.631Z,19.60
2023-02-17T02:10:43.573Z,17.57
2023-02-17T02:13:14.084Z,16.20
2023-02-17T02:15:53.661Z,22.20
2023-02-17T02:18:45.662Z,19.13
2023-02-17T02:21:47.061Z,19.47
2023-02-17T02:24:34.957Z,16.40
2023-02-17T02:27:32.638Z,22.57
2023-02-17T02:30:38.133Z,17.53
2023-02-17T02:33:13.412Z,17.83
2023-02-17T02:35:56.163Z,20.53
2023-02-17T02:38:29.304Z,20.57
2023-02-17T02:41:06.969Z,18.60
2023-02-17T02:43:35.091Z,15.73
2023-02-17T02:46:03.157Z,20.40
2023-02-17T02:48:33.292Z,18.90
2023-02-17T02:51:19.345Z,15.47
2023-02-17T02:54:16.735Z,13.03
2023-02-17T02:57:00.033Z,15.57
2023-02-17T02:59:46.117Z,12.90
2023-02-17T03:02:23.485Z,19.50
2023-02-17T03:05:00.179Z,15.33
2023-02-17T03:07:32.690Z,19.70
2023-02-17T03:10:02.077Z,14.50
2023-02-17T03:12:31.013Z,17.70
2023-02-17T03:15:04.138Z,11.67
2023-02-17T03:17:33.269Z,14.20
2023-02-17T03:20:06.178Z,15.83
2023-02-17T03:22:37.770Z,12.40
2023-02-17T03:25:07.649Z,14.23
2023-02-17T03:27:35.842Z,14.90
2023-02-17T03:30:04.767Z,28.23
2023-02-17T03:32:33.558Z,15.67
2023-02-17T03:35:03.178Z,19.07
2023-02-17T03:37:31.861Z,13.53
2023-02-17T03:40:01.146Z,13.00
2023-02-17T03:42:29.320Z,13.03
2023-02-17T03:44:57.340Z,11.93
2023-02-17T03:47:25.821Z,11.30
2023-02-17T03:49:55.142Z,12.10
2023-02-17T03:52:25.018Z,14.60
2023-02-17T03:54:53.426Z,13.90
2023-02-17T03:57:22.504Z,10.70
2023-02-17T03:59:53.226Z,12.50
2023-02-17T04:02:21.821Z,11.93
2023-02-17T04:04:50.094Z,12.50
2023-02-17T04:07:18.074Z,10.93
2023-02-17T04:09:48.175Z,10.30
2023-02-17T04:12:16.464Z,11.17
2023-02-17T04:14:44.449Z,11.40
2023-02-17T04:17:14.634Z,9.63
2023-02-17T04:20:09.217Z,11.57
2023-02-17T04:22:38.799Z,10.90
2023-02-17T04:25:08.739Z,9.27
2023-02-17T04:27:37.128Z,12.40
2023-02-17T04:30:09.494Z,10.03
2023-02-17T04:32:39.052Z,9.23
2023-02-17T04:35:10.294Z,10.67
2023-02-17T04:37:38.368Z,8.50
2023-02-17T04:40:11.191Z,10.17
2023-02-17T04:42:39.330Z,9.67
2023-02-17T04:45:08.495Z,10.53
2023-02-17T04:47:37.578Z,10.23
2023-02-17T04:50:09.470Z,9.20
2023-02-17T04:52:38.195Z,8.43
2023-02-17T04:55:11.178Z,8.17
2023-02-17T04:57:39.163Z,12.13
2023-02-17T05:00:09.260Z,12.47
2023-02-17T05:02:37.431Z,9.20
2023-02-17T05:05:05.970Z,10.27
2023-02-17T05:07:57.384Z,9.10
2023-02-17T05:10:27.046Z,9.53
2023-02-17T05:12:55.960Z,11.10
2023-02-17T05:15:25.194Z,8.50
2023-02-17T05:17:54.373Z,11.03
2023-02-17T05:20:23.654Z,10.10
2023-02-17T05:22:52.314Z,11.83
2023-02-17T05:25:21.799Z,12.43
2023-02-17T05:27:51.985Z,11.30
2023-02-17T05:30:20.331Z,10.23
2023-02-17T05:32:49.274Z,9.40
2023-02-17T05:35:17.418Z,10.43
2023-02-17T05:37:45.919Z,10.30
2023-02-17T05:40:14.546Z,10.67
2023-02-17T05:42:43.228Z,10.17
2023-02-17T05:45:12.918Z,13.30
2023-02-17T05:47:40.960Z,12.23
2023-02-17T05:50:10.448Z,10.23
2023-02-17T05:52:38.680Z,10.90
2023-02-17T05:55:07.686Z,9.53
2023-02-17T05:57:36.491Z,10.97
2023-02-17T06:00:05.789Z,11.40
2023-02-17T06:02:41.483Z,10.60
2023-02-17T06:05:11.389Z,13.20
2023-02-17T06:07:41.126Z,13.43
2023-02-17T06:10:10.448Z,10.90
2023-02-17T06:12:38.464Z,10.40
2023-02-17T06:15:08.187Z,12.03
2023-02-17T06:17:36.622Z,12.00
2023-02-17T06:20:08.330Z,22.93
2023-02-17T06:22:36.842Z,12.90
2023-02-17T06:25:06.615Z,14.03
2023-02-17T06:27:35.069Z,13.33
2023-02-17T06:30:05.300Z,12.93
2023-02-17T06:32:34.619Z,12.47
2023-02-17T06:35:03.908Z,12.20
2023-02-17T06:37:33.245Z,13.40
2023-02-17T06:40:01.702Z,12.77
2023-02-17T06:42:31.231Z,12.07
2023-02-17T06:45:00.712Z,14.20
2023-02-17T06:47:29.253Z,11.07
2023-02-17T06:49:57.219Z,16.37
2023-02-17T06:52:26.223Z,14.90
2023-02-17T06:54:55.654Z,12.27
2023-02-17T06:57:24.129Z,11.10
2023-02-17T06:59:52.563Z,15.00
2023-02-17T07:02:21.428Z,14.23
2023-02-17T07:04:49.762Z,12.43
2023-02-17T07:07:17.751Z,11.30
2023-02-17T07:09:46.277Z,11.80
2023-02-17T07:12:15.602Z,12.30
2023-02-17T07:14:44.250Z,11.87
2023-02-17T07:17:13.291Z,17.20
2023-02-17T07:19:41.286Z,11.50
2023-02-17T07:22:09.917Z,16.30
2023-02-17T07:24:38.315Z,17.40
2023-02-17T07:27:10.697Z,12.53
2023-02-17T07:29:40.903Z,11.80
2023-02-17T07:32:09.067Z,12.47
2023-02-17T07:34:38.807Z,13.03
2023-02-17T07:37:07.736Z,12.50
2023-02-17T07:39:36.769Z,14.70
2023-02-17T07:42:06.106Z,15.50
2023-02-17T07:44:35.319Z,14.57
2023-02-17T07:47:04.804Z,14.30
2023-02-17T07:49:33.454Z,12.20
2023-02-17T07:52:03.552Z,10.37
2023-02-17T07:54:34.072Z,11.67
2023-02-17T07:57:14.616Z,12.97
2023-02-17T07:59:42.597Z,11.17
2023-02-17T08:02:13.763Z,13.87
2023-02-17T08:04:41.842Z,10.80
2023-02-17T08:07:11.285Z,14.03
2023-02-17T08:10:09.610Z,12.10
2023-02-17T08:12:54.957Z,12.97
2023-02-17T08:15:24.045Z,11.93
2023-02-17T08:17:53.861Z,12.00
2023-02-17T08:20:22.741Z,12.13
2023-02-17T08:22:52.805Z,12.57
2023-02-17T08:25:21.691Z,14.50
2023-02-17T08:27:50.176Z,12.10
2023-02-17T08:30:18.434Z,13.23
2023-02-17T08:32:47.683Z,11.40
2023-02-17T08:35:22.379Z,10.07
2023-02-17T08:37:51.986Z,12.67
2023-02-17T08:40:20.631Z,11.60
2023-02-17T08:42:48.889Z,9.27
2023-02-17T08:45:18.392Z,11.40
2023-02-17T08:47:47.313Z,9.17
2023-02-17T08:50:17.840Z,11.00
2023-02-17T08:52:46.444Z,9.97
2023-02-17T08:55:15.134Z,11.67
2023-02-17T08:57:43.586Z,10.80
2023-02-17T09:00:17.291Z,9.80
2023-02-17T09:02:47.872Z,10.30
2023-02-17T09:05:17.355Z,10.70
2023-02-17T09:07:45.384Z,8.20
2023-02-17T09:10:14.511Z,10.73
2023-02-17T09:12:42.599Z,8.33
2023-02-17T09:15:11.050Z,16.00
2023-02-17T09:17:43.095Z,10.80
2023-02-17T09:20:24.370Z,7.70
2023-02-17T09:22:55.115Z,10.77
2023-02-17T09:25:23.155Z,7.33
2023-02-17T09:27:51.845Z,10.17
2023-02-17T09:30:20.995Z,12.07
2023-02-17T09:32:50.332Z,14.97
2023-02-17T09:35:19.741Z,10.70
2023-02-17T09:37:48.175Z,11.87
2023-02-17T09:40:23.203Z,9.50
2023-02-17T09:42:52.705Z,8.67
2023-02-17T09:45:26.605Z,8.60
2023-02-17T09:47:59.183Z,8.40
2023-02-17T09:50:30.799Z,7.63
2023-02-17T09:53:04.458Z,9.63
2023-02-17T09:55:38.912Z,9.73
2023-02-17T09:58:12.859Z,10.67
2023-02-17T10:00:46.264Z,12.13
2023-02-17T10:03:19.677Z,9.07
2023-02-17T10:05:53.171Z,9.03
2023-02-17T10:08:27.244Z,10.57
2023-02-17T10:11:03.202Z,8.90
2023-02-17T10:13:34.596Z,8.73
2023-02-17T10:16:08.054Z,6.80
2023-02-17T10:18:41.993Z,11.73
2023-02-17T10:21:19.308Z,6.90
2023-02-17T10:23:47.557Z,9.00
2023-02-17T10:26:26.930Z,8.53
2023-02-17T10:29:00.692Z,6.90
2023-02-17T10:31:49.096Z,6.60
2023-02-17T10:34:26.791Z,9.50
2023-02-17T10:37:00.570Z,8.17
2023-02-17T10:39:44.195Z,10.80
2023-02-17T10:42:22.288Z,7.23
2023-02-17T10:44:52.079Z,7.47
2023-02-17T10:47:22.807Z,9.83
2023-02-17T10:49:54.138Z,11.40
2023-02-17T10:52:24.580Z,7.17
2023-02-17T10:55:06.493Z,10.80
2023-02-17T10:57:43.074Z,7.80
2023-02-17T11:00:17.801Z,8.37
2023-02-17T11:02:47.772Z,8.07
2023-02-17T11:05:26.380Z,7.37
2023-02-17T11:08:02.424Z,5.50
2023-02-17T11:10:33.669Z,6.37
2023-02-17T11:13:04.986Z,5.70
2023-02-17T11:15:37.816Z,6.70
2023-02-17T11:18:13.070Z,6.20
2023-02-17T11:20:42.080Z,6.23
2023-02-17T11:23:24.692Z,7.13
2023-02-17T11:26:02.359Z,8.60
2023-02-17T11:28:31.990Z,7.73
2023-02-17T11:31:07.085Z,10.10
2023-02-17T11:33:38.854Z,7.30
2023-02-17T11:36:14.385Z,7.93
2023-02-17T11:38:45.647Z,5.80
2023-02-17T11:41:15.018Z,8.63
2023-02-17T11:43:55.930Z,6.87
2023-02-17T11:46:31.315Z,5.00
2023-02-17T11:49:27.815Z,6.03
2023-02-17T11:52:09.764Z,5.50
2023-02-17T11:54:50.229Z,6.40
2023-02-17T11:57:35.403Z,6.10
2023-02-17T12:00:15.002Z,11.37
2023-02-17T12:03:10.853Z,6.17
2023-02-17T12:05:52.394Z,6.43
2023-02-17T12:08:28.402Z,6.57
2023-02-17T12:11:08.707Z,5.00
2023-02-17T12:13:47.657Z,6.50
2023-02-17T12:16:28.394Z,5.40
2023-02-17T12:19:06.988Z,6.40
2023-02-17T12:21:45.778Z,4.70
2023-02-17T12:24:29.258Z,5.07
2023-02-17T12:27:06.615Z,5.03
2023-02-17T12:29:52.118Z,5.80
2023-02-17T12:32:37.409Z,4.57
2023-02-17T12:35:17.270Z,7.03
2023-02-17T12:37:52.277Z,4.00
2023-02-17T12:40:32.684Z,6.33
2023-02-17T12:43:29.294Z,5.00
2023-02-17T12:46:10.168Z,6.70
2023-02-17T12:48:46.092Z,7.67
2023-02-17T12:51:22.604Z,4.93
2023-02-17T12:53:58.568Z,5.40
2023-02-17T12:56:56.925Z,5.17
2023-02-17T12:59:32.665Z,8.07
2023-02-17T13:02:03.158Z,6.27
2023-02-17T13:04:35.093Z,6.80
2023-02-17T13:07:43.685Z,7.97
2023-02-17T13:10:23.439Z,4.70
2023-02-17T13:13:01.659Z,5.00
2023-02-17T13:15:36.135Z,5.50
2023-02-17T13:18:07.705Z,6.13
2023-02-17T13:20:54.337Z,4.73
2023-02-17T13:23:44.717Z,5.27
2023-02-17T13:26:29.044Z,5.17
2023-02-17T13:29:15.535Z,5.57
2023-02-17T13:31:53.807Z,4.93
2023-02-17T13:34:30.445Z,5.10
2023-02-17T13:37:02.981Z,7.83
2023-02-17T13:39:37.692Z,4.00
2023-02-17T13:42:26.500Z,7.23
2023-02-17T13:44:55.961Z,5.70
2023-02-17T13:47:31.561Z,4.70
2023-02-17T13:50:01.232Z,10.23
2023-02-17T13:52:32.801Z,5.83
2023-02-17T13:55:05.405Z,6.13
2023-02-17T13:57:35.765Z,6.20
2023-02-17T14:00:10.231Z,6.70
2023-02-17T14:02:46.633Z,6.60
2023-02-17T14:05:21.507Z,6.67
2023-02-17T14:07:51.405Z,8.87
2023-02-17T14:10:23.153Z,5.90
2023-02-17T14:12:51.840Z,5.93
2023-02-17T14:15:21.867Z,7.80
2023-02-17T14:17:51.470Z,7.53
2023-02-17T14:20:32.935Z,3.40
2023-02-17T14:23:05.739Z,4.80
2023-02-17T14:25:37.517Z,4.83
2023-02-17T14:28:19.984Z,6.23
2023-02-17T14:30:48.897Z,4.00
2023-02-17T14:33:23.122Z,5.40
2023-02-17T14:38:44.979Z,7.00
2023-02-17T14:41:16.271Z,6.50
2023-02-17T14:43:44.303Z,8.03
2023-02-17T14:46:12.814Z,4.10
2023-02-17T14:48:41.776Z,5.73
2023-02-17T14:51:14.301Z,5.00
2023-02-17T14:53:44.678Z,6.13
2023-02-17T14:56:19.546Z,7.27
2023-02-17T14:58:48.543Z,10.43
2023-02-17T15:01:22.739Z,7.30
2023-02-17T15:03:51.613Z,6.83
2023-02-17T15:06:21.707Z,7.23
2023-02-17T15:08:53.968Z,8.90
2023-02-17T15:11:30.203Z,12.87
2023-02-17T15:13:58.641Z,15.27
2023-02-17T15:16:27.148Z,16.43
2023-02-17T15:18:56.276Z,10.53
2023-02-17T15:21:28.255Z,10.20
2023-02-17T15:24:00.314Z,12.50
2023-02-17T15:26:30.323Z,9.13
2023-02-17T15:28:58.368Z,10.00
2023-02-17T15:31:31.609Z,7.03
2023-02-17T15:34:04.621Z,12.10
2023-02-17T15:36:34.937Z,9.33
2023-02-17T15:39:04.518Z,8.33
2023-02-17T15:41:33.828Z,7.70
2023-02-17T15:44:04.948Z,14.30
2023-02-17T15:46:36.296Z,7.97
2023-02-17T15:49:06.760Z,9.53
2023-02-17T15:51:35.227Z,7.50
2023-02-17T15:54:05.384Z,11.40
2023-02-17T15:56:39.541Z,14.40
2023-02-17T15:59:13.210Z,13.63
2023-02-17T16:01:45.509Z,10.70
2023-02-17T16:04:15.709Z,7.03
2023-02-17T16:06:45.007Z,7.50
2023-02-17T16:09:14.354Z,7.93
2023-02-17T16:11:49.872Z,6.13
2023-02-17T16:14:26.357Z,10.10
2023-02-17T16:16:56.694Z,6.17
2023-02-17T16:19:26.527Z,8.00
2023-02-17T16:21:55.542Z,13.73
2023-02-17T16:24:25.876Z,8.93
2023-02-17T16:26:59.353Z,7.47
2023-02-17T16:29:28.942Z,8.90
2023-02-17T16:31:57.148Z,9.63
2023-02-17T16:34:25.880Z,7.50
2023-02-17T16:36:59.536Z,7.27
2023-02-17T16:39:29.206Z,6.43
2023-02-17T16:41:57.199Z,7.00
2023-02-17T16:44:25.950Z,6.10
2023-02-17T16:46:57.294Z,7.67
2023-02-17T16:49:32.831Z,7.90
2023-02-17T16:52:01.244Z,11.53
2023-02-17T16:54:30.898Z,5.63
2023-02-17T16:56:59.893Z,5.93
2023-02-17T16:59:28.760Z,5.43
2023-02-17T17:01:57.167Z,5.13
2023-02-17T17:04:25.214Z,6.77
2023-02-17T17:06:54.547Z,6.27
2023-02-17T17:09:25.324Z,7.80
2023-02-17T17:11:55.492Z,6.57
2023-02-17T17:14:24.603Z,8.20
2023-02-17T17:16:56.761Z,9.00
2023-02-17T17:19:24.953Z,8.20
2023-02-17T17:21:54.606Z,10.03
2023-02-17T17:24:24.793Z,8.30
2023-02-17T17:26:52.822Z,10.07
2023-02-17T17:29:23.304Z,10.57
2023-02-17T17:31:51.989Z,8.63
2023-02-17T17:34:20.068Z,7.50
2023-02-17T17:36:49.142Z,10.30
2023-02-17T17:42:11.119Z,8.03
2023-02-17T17:44:41.274Z,6.90
2023-02-17T17:47:21.282Z,10.53
2023-02-17T17:49:59.757Z,14.10
2023-02-17T17:52:27.835Z,6.90
2023-02-17T17:54:55.814Z,8.80
2023-02-17T17:57:24.742Z,10.70
2023-02-17T17:59:54.187Z,7.37
2023-02-17T18:02:22.436Z,10.47
2023-02-17T18:04:51.597Z,10.60
2023-02-17T18:07:20.553Z,9.20
2023-02-17T18:09:49.004Z,7.93
2023-02-17T18:12:20.701Z,8.27
2023-02-17T18:14:52.259Z,8.93
2023-02-17T18:17:23.809Z,12.33
2023-02-17T18:19:54.923Z,16.03
2023-02-17T18:22:25.508Z,12.27
2023-02-17T18:24:56.823Z,14.13
2023-02-17T18:27:25.277Z,11.97
2023-02-17T18:29:56.286Z,9.60
2023-02-17T18:32:25.935Z,12.50
2023-02-17T18:34:56.929Z,12.60
2023-02-17T18:37:25.840Z,11.00
2023-02-17T18:39:53.853Z,13.10
2023-02-17T18:42:22.771Z,10.90
2023-02-17T18:44:51.060Z,17.07
2023-02-17T18:47:19.095Z,13.83
2023-02-17T18:49:54.589Z,13.50
2023-02-17T18:52:22.928Z,13.13
2023-02-17T18:54:51.893Z,12.20
2023-02-17T18:57:19.889Z,12.13
2023-02-17T18:59:49.689Z,12.83
2023-02-17T19:02:18.515Z,13.17
2023-02-17T19:04:47.651Z,17.40
2023-02-17T19:07:18.038Z,13.10
2023-02-17T19:09:46.080Z,14.03
2023-02-17T19:12:14.141Z,14.30
2023-02-17T19:14:43.073Z,14.80
2023-02-17T19:17:12.865Z,14.00
2023-02-17T19:19:42.867Z,17.70
2023-02-17T19:22:10.845Z,18.90
2023-02-17T19:24:42.565Z,16.43
2023-02-17T19:27:12.190Z,14.07
2023-02-17T19:29:44.894Z,12.93
2023-02-17T19:32:13.311Z,14.70
2023-02-17T19:34:42.362Z,17.00
2023-02-17T19:37:10.793Z,15.47
2023-02-17T19:39:40.920Z,17.87
2023-02-17T19:42:09.375Z,13.37
2023-02-17T19:44:39.627Z,16.67
2023-02-17T19:47:07.598Z,17.07
2023-02-17T19:49:36.479Z,19.70
2023-02-17T19:52:06.554Z,14.13
2023-02-17T19:54:34.860Z,13.40
2023-02-17T19:57:07.071Z,15.33
2023-02-17T19:59:35.635Z,14.70
2023-02-17T20:02:04.017Z,16.07
2023-02-17T20:04:32.377Z,14.40
2023-02-17T20:07:00.317Z,16.33
2023-02-17T20:09:29.647Z,16.50
2023-02-17T20:11:57.680Z,16.93
2023-02-17T20:14:27.692Z,15.07
2023-02-17T20:16:56.355Z,15.90
2023-02-17T20:19:24.388Z,23.60
2023-02-17T20:21:54.579Z,15.83
2023-02-17T20:24:23.262Z,17.27
2023-02-17T20:26:54.666Z,19.60
2023-02-17T20:29:24.677Z,16.10
2023-02-17T20:31:54.159Z,15.63
2023-02-17T20:34:28.500Z,21.20
2023-02-17T20:36:58.871Z,15.43
2023-02-17T20:39:28.020Z,15.70
2023-02-17T20:41:57.484Z,19.67
2023-02-17T20:44:27.941Z,20.87
2023-02-17T20:46:59.080Z,18.47
2023-02-17T20:49:28.467Z,15.57
2023-02-17T20:51:57.051Z,21.00
2023-02-17T20:54:26.666Z,17.00
2023-02-17T20:56:56.468Z,21.50
2023-02-17T20:59:24.622Z,24.20
2023-02-17T21:01:52.653Z,25.10
2023-02-17T21:04:23.137Z,26.10
2023-02-17T21:06:53.957Z,25.00
2023-02-17T21:09:22.778Z,28.03
2023-02-17T21:11:51.246Z,23.83
2023-02-17T21:14:19.244Z,22.30
2023-02-17T21:16:48.697Z,28.47
2023-02-17T21:19:19.212Z,20.93
2023-02-17T21:21:49.416Z,22.70
2023-02-17T21:24:19.204Z,21.37
2023-02-17T21:26:47.394Z,25.70
2023-02-17T21:29:15.659Z,23.37
2023-02-17T21:31:44.209Z,23.53
2023-02-17T21:34:12.312Z,30.77
2023-02-17T21:36:41.715Z,24.83
2023-02-17T21:39:11.137Z,23.20
2023-02-17T21:41:42.399Z,24.20
2023-02-17T21:44:30.825Z,26.53
2023-02-17T21:47:00.695Z,24.63
2023-02-17T21:49:29.771Z,23.73
2023-02-17T21:51:58.936Z,26.70
2023-02-17T21:54:31.671Z,30.90
2023-02-17T21:57:03.376Z,24.23
2023-02-17T21:59:32.295Z,26.33
2023-02-17T22:02:00.735Z,29.40
2023-02-17T22:04:29.886Z,28.37
2023-02-17T22:06:58.318Z,28.23
2023-02-17T22:09:26.313Z,29.97
2023-02-17T22:11:56.529Z,30.30
2023-02-17T22:14:24.960Z,30.93
2023-02-17T22:16:54.102Z,26.97
2023-02-17T22:19:24.569Z,27.23
2023-02-17T22:21:53.916Z,28.37
2023-02-17T22:24:22.637Z,30.87
2023-02-17T22:26:50.768Z,27.70
2023-02-17T22:29:20.293Z,27.40
2023-02-17T22:31:50.588Z,30.17
2023-02-17T22:34:18.912Z,30.17
2023-02-17T22:36:46.938Z,29.57
2023-02-17T22:39:15.860Z,32.07
2023-02-17T22:41:43.873Z,30.50
2023-02-17T22:44:12.414Z,31.50
2023-02-17T22:46:42.423Z,25.87
2023-02-17T22:49:11.003Z,27.27
2023-02-17T22:51:41.749Z,26.10
2023-02-17T22:54:12.352Z,25.13
2023-02-17T22:56:40.674Z,34.87
2023-02-17T22:59:09.572Z,27.97
2023-02-17T23:01:38.234Z,32.77
2023-02-17T23:04:08.368Z,29.97
2023-02-17T23:06:38.267Z,33.13
2023-02-17T23:09:07.989Z,29.50
2023-02-17T23:11:58.198Z,31.87
2023-02-17T23:14:32.090Z,35.03
2023-02-17T23:17:02.485Z,31.33
2023-02-17T23:19:33.247Z,33.83
2023-02-17T23:22:03.785Z,35.37
2023-02-17T23:24:35.532Z,30.73
2023-02-17T23:27:04.265Z,31.67
2023-02-17T23:29:33.527Z,35.50
2023-02-17T23:32:02.757Z,44.83
2023-02-17T23:34:32.529Z,35.50
2023-02-17T23:37:02.749Z,31.10
2023-02-17T23:39:32.257Z,32.27
2023-02-17T23:42:00.239Z,34.37
2023-02-17T23:44:29.083Z,36.10
2023-02-17T23:46:57.122Z,30.33
2023-02-17T23:49:26.332Z,28.40
2023-02-17T23:51:55.657Z,27.07
2023-02-17T23:54:25.328Z,33.70
2023-02-17T23:56:53.900Z,31.97
2023-02-17T23:59:22.083Z,30.13
